.
WxDataArchive / Data Records for 2012-03-02
2012-03-01 March 2012 2012-03-03

Data Records for Friday, 02 March 2012

Time	Temp	Chill	HIndex	Humid	Dewpt	 Wind 	HiWind	WindDir	Rain 	Barom 
-----	----	-----	------	-----	-----	------	------	-------	-----	----- 
00:00	31.3	31.3	31.3	89	28.4	0	0	---	0.00	29.871 
00:05	31.2	31.2	31.2	89	28.3	0	0	---	0.00	29.871 
00:10	31.2	31.2	31.2	89	28.3	0	0	---	0.00	29.871 
00:15	31.0	31.0	31.0	89	28.1	0	0	---	0.00	29.873 
00:20	30.9	30.9	30.9	89	28.0	0	0	---	0.00	29.873 
00:25	30.7	30.7	30.7	89	27.8	0	0	---	0.00	29.873 
00:30	30.7	30.7	30.7	89	27.8	0	0	---	0.00	29.874 
00:35	30.7	30.7	30.7	89	27.8	0	0	---	0.00	29.874 
00:40	30.7	30.7	30.7	90	28.1	0	0	---	0.00	29.874 
00:45	30.9	30.9	30.9	90	28.3	0	1	248	0.00	29.874 
00:50	31.0	31.0	31.0	90	28.4	0	0	---	0.00	29.874 
00:55	31.0	31.0	31.0	90	28.4	0	0	---	0.00	29.874 
01:00	31.2	31.2	31.2	90	28.6	0	1	248	0.00	29.872 
01:05	31.2	31.2	31.2	90	28.6	0	0	---	0.00	29.872 
01:10	31.2	31.2	31.2	90	28.6	0	1	248	0.00	29.872 
01:15	31.3	31.3	31.3	90	28.7	0	1	248	0.00	29.873 
01:20	31.3	31.3	31.3	90	28.7	0	1	248	0.00	29.873 
01:25	31.3	31.3	31.3	90	28.7	0	2	248	0.00	29.873 
01:30	31.5	31.5	31.5	90	28.9	0	2	248	0.00	29.864 
01:35	31.8	31.8	31.8	90	29.2	1	3	248	0.00	29.864 
01:40	31.8	31.8	31.8	90	29.2	0	2	248	0.00	29.864 
01:45	31.9	31.9	31.9	90	29.3	1	3	248	0.00	29.860 
01:50	31.9	31.9	31.9	90	29.3	1	3	248	0.00	29.860 
01:55	31.9	31.9	31.9	90	29.3	1	3	135	0.00	29.860 
02:00	31.9	31.9	31.9	89	29.0	1	2	135	0.00	29.848 
02:05	31.8	31.8	31.8	89	28.9	1	3	135	0.00	29.848 
02:10	31.8	31.8	31.8	89	28.9	1	4	135	0.00	29.848 
02:15	31.8	31.8	31.8	89	28.9	2	3	90	0.00	29.842 
02:20	31.9	31.9	31.9	89	29.0	2	4	90	0.00	29.842 
02:25	32.1	32.1	32.1	89	29.2	2	4	90	0.00	29.842 
02:30	32.1	32.1	32.1	89	29.2	2	5	90	0.00	29.829 
02:35	32.1	32.1	32.1	88	29.0	1	4	68	0.00	29.829 
02:40	31.9	31.9	31.9	88	28.8	2	4	68	0.00	29.829 
02:45	31.9	31.9	31.9	88	28.8	2	4	68	0.00	29.825 
02:50	31.9	31.9	31.9	88	28.8	2	5	90	0.00	29.825 
02:55	31.9	31.9	31.9	88	28.8	2	3	90	0.00	29.825 
03:00	31.9	31.9	31.9	88	28.8	2	3	90	0.00	29.811 
03:05	31.9	31.9	31.9	88	28.8	2	4	90	0.00	29.811 
03:10	32.1	32.1	32.1	88	29.0	2	4	90	0.00	29.811 
03:15	32.2	32.2	32.2	88	29.1	2	4	90	0.00	29.798 
03:20	32.2	32.2	32.2	88	29.1	1	3	90	0.00	29.798 
03:25	32.2	32.2	32.2	88	29.1	1	4	90	0.00	29.798 
03:30	32.2	32.2	32.2	88	29.1	1	3	90	0.00	29.792 
03:35	32.2	32.2	32.2	88	29.1	1	4	90	0.00	29.792 
03:40	32.2	32.2	32.2	88	29.1	1	3	90	0.00	29.792 
03:45	32.2	32.2	32.2	88	29.1	1	4	90	0.00	29.782 
03:50	32.1	32.1	32.1	88	29.0	1	3	90	0.00	29.782 
03:55	32.1	32.1	32.1	88	29.0	1	3	90	0.00	29.782 
04:00	32.1	32.1	32.1	88	29.0	2	3	90	0.00	29.770 
04:05	32.1	32.1	32.1	88	29.0	1	3	90	0.00	29.770 
04:10	32.1	32.1	32.1	88	29.0	1	3	90	0.00	29.770 
04:15	32.1	32.1	32.1	88	29.0	2	4	90	0.00	29.759 
04:20	32.1	32.1	32.1	88	29.0	1	4	90	0.00	29.759 
04:25	32.1	32.1	32.1	88	29.0	2	4	90	0.00	29.759 
04:30	32.1	32.1	32.1	88	29.0	1	4	90	0.00	29.752 
04:35	32.1	32.1	32.1	88	29.0	1	3	90	0.00	29.752 
04:40	32.1	32.1	32.1	88	29.0	0	2	90	0.00	29.752 
04:45	32.1	32.1	32.1	89	29.2	0	2	90	0.00	29.749 
04:50	32.2	32.2	32.2	89	29.3	1	3	90	0.00	29.749 
04:55	32.2	32.2	32.2	89	29.3	1	2	90	0.00	29.749 
05:00	32.2	32.2	32.2	88	29.1	2	4	90	0.00	29.743 
05:05	32.2	32.2	32.2	88	29.1	1	3	90	0.00	29.743 
05:10	32.2	32.2	32.2	88	29.1	2	4	90	0.00	29.743 
05:15	32.2	32.2	32.2	89	29.3	1	5	90	0.00	29.732 
05:20	32.2	32.2	32.2	89	29.3	1	3	90	0.00	29.732 
05:25	32.2	32.2	32.2	89	29.3	1	3	90	0.00	29.732 
05:30	32.4	32.4	32.4	89	29.5	2	4	90	0.00	29.731 
05:35	32.4	32.4	32.4	89	29.5	1	3	90	0.00	29.731 
05:40	32.4	32.4	32.4	89	29.5	1	2	90	0.00	29.731 
05:45	32.4	32.4	32.4	89	29.5	1	3	90	0.00	29.719 
05:50	32.5	32.5	32.5	89	29.6	2	5	90	0.00	29.719 
05:55	32.5	32.5	32.5	89	29.6	2	4	90	0.00	29.719 
06:00	32.5	32.5	32.5	89	29.6	1	4	90	0.00	29.716 
06:05	32.5	32.5	32.5	89	29.6	1	4	90	0.00	29.716 
06:10	32.4	32.4	32.4	89	29.5	2	4	90	0.00	29.716 
06:15	32.4	32.4	32.4	89	29.5	2	6	90	0.00	29.713 
06:20	32.2	32.2	32.2	89	29.3	1	4	90	0.00	29.713 
06:25	32.2	32.2	32.2	89	29.3	2	5	112	0.00	29.713 
06:30	32.1	32.1	32.1	90	29.5	1	4	112	0.00	29.702 
06:35	32.1	32.1	32.1	90	29.5	1	6	90	0.00	29.702 
06:40	32.1	32.1	32.1	90	29.5	2	6	90	0.00	29.702 
06:45	32.2	32.2	32.2	90	29.6	2	4	90	0.00	29.693 
06:50	32.2	32.2	32.2	90	29.6	2	5	90	0.00	29.693 
06:55	32.2	32.2	32.2	90	29.6	3	6	90	0.00	29.693 
07:00	32.2	32.2	32.2	89	29.3	2	5	90	0.00	29.679 
07:05	32.2	32.2	32.2	89	29.3	3	5	90	0.00	29.679 
07:10	32.4	32.4	32.4	89	29.5	3	9	90	0.00	29.679 
07:15	32.2	28.3	32.2	89	29.3	4	9	90	0.00	29.662 
07:20	32.2	32.2	32.2	89	29.3	3	5	90	0.00	29.662 
07:25	32.4	32.4	32.4	89	29.5	3	6	90	0.00	29.662 
07:30	32.4	32.4	32.4	89	29.5	2	5	90	0.00	29.655 
07:35	32.5	32.5	32.5	89	29.6	3	6	90	0.00	29.655 
07:40	32.7	32.7	32.7	89	29.8	2	5	90	0.00	29.655 
07:45	32.9	32.9	32.9	89	30.0	3	5	90	0.00	29.653 
07:50	33.2	33.2	33.2	89	30.3	2	6	112	0.00	29.653 
07:55	33.4	33.4	33.4	88	30.2	3	10	112	0.00	29.653 
08:00	33.7	33.7	33.7	88	30.5	2	6	90	0.00	29.653 
08:05	33.7	33.7	33.7	88	30.5	2	4	90	0.00	29.653 
08:10	33.8	33.8	33.8	88	30.6	3	5	90	0.00	29.653 
08:15	34.0	30.4	34.0	88	30.8	4	7	90	0.00	29.637 
08:20	34.0	34.0	34.0	88	30.8	3	9	90	0.00	29.637 
08:25	34.1	34.1	34.1	88	30.9	3	8	90	0.00	29.637 
08:30	34.3	30.7	34.3	88	31.1	4	7	90	0.00	29.636 
08:35	34.3	30.7	34.3	88	31.1	4	10	90	0.00	29.636 
08:40	34.4	30.8	34.4	88	31.2	4	6	90	0.00	29.636 
08:45	34.6	31.1	34.6	88	31.4	4	10	112	0.00	29.632 
08:50	34.9	34.9	34.9	88	31.7	3	6	90	0.00	29.632 
08:55	35.0	35.0	35.0	87	31.5	3	6	90	0.00	29.632 
09:00	35.3	31.9	35.3	87	31.8	4	8	90	0.00	29.636 
09:05	35.5	35.5	35.5	87	32.0	3	7	90	0.00	29.636 
09:10	35.8	35.8	35.8	86	32.0	2	5	112	0.00	29.636 
09:15	35.8	35.8	35.8	86	32.0	3	9	90	0.00	29.630 
09:20	35.9	32.6	35.9	86	32.1	4	10	90	0.00	29.630 
09:25	35.9	35.9	35.9	86	32.1	3	7	90	0.00	29.630 
09:30	36.0	36.0	36.0	86	32.2	3	9	90	0.00	29.625 
09:35	36.0	36.0	36.0	85	31.9	3	7	90	0.00	29.625 
09:40	36.2	36.2	36.2	86	32.4	3	8	90	0.00	29.625 
09:45	36.3	36.3	36.3	86	32.5	2	6	90	0.00	29.623 
09:50	36.5	36.5	36.5	85	32.4	3	6	90	0.00	29.623 
09:55	36.6	36.6	36.6	85	32.5	2	8	112	0.00	29.623 
10:00	36.6	36.6	36.6	85	32.5	3	6	112	0.00	29.608 
10:05	36.8	36.8	36.8	86	33.0	2	6	112	0.00	29.608 
10:10	36.9	36.9	36.9	85	32.8	3	7	90	0.00	29.608 
10:15	37.0	37.0	37.0	85	32.9	3	10	90	0.00	29.602 
10:20	37.3	37.3	37.3	84	32.9	3	8	90	0.00	29.602 
10:25	37.5	34.4	37.5	84	33.1	4	7	112	0.00	29.602 
10:30	37.6	37.6	37.6	84	33.2	3	6	112	0.00	29.584 
10:35	37.9	37.9	37.9	84	33.5	2	5	112	0.00	29.584 
10:40	38.2	38.2	38.2	84	33.8	3	5	90	0.00	29.584 
10:45	38.5	35.6	38.5	83	33.8	4	10	112	0.00	29.578 
10:50	38.6	38.6	38.6	83	33.9	3	6	112	0.00	29.578 
10:55	38.8	35.1	38.8	83	34.1	5	9	90	0.00	29.578 
11:00	38.9	35.2	38.9	82	33.9	5	11	90	0.00	29.560 
11:05	39.2	36.4	39.2	82	34.2	4	7	112	0.00	29.560 
11:10	39.3	39.3	39.3	82	34.3	3	8	90	0.00	29.560 
11:15	39.5	39.5	39.5	82	34.5	3	9	90	0.00	29.541 
11:20	39.6	39.6	39.6	82	34.6	3	7	112	0.00	29.541 
11:25	39.8	39.8	39.8	83	35.1	3	5	90	0.00	29.541 
11:30	40.1	40.1	40.1	83	35.4	3	9	112	0.00	29.540 
11:35	40.1	40.1	40.1	83	35.4	3	6	90	0.00	29.540 
11:40	40.2	40.2	40.2	83	35.5	3	5	90	0.00	29.540 
11:45	40.2	40.2	40.2	83	35.5	3	6	68	0.00	29.511 
11:50	40.3	40.3	40.3	84	35.9	3	7	90	0.00	29.511 
11:55	40.6	40.6	40.6	84	36.2	3	6	90	0.00	29.511 
12:00	40.8	40.8	40.8	84	36.3	3	7	112	0.00	29.472 
12:05	41.1	41.1	41.1	85	36.9	3	6	90	0.00	29.472 
12:10	41.3	41.3	41.3	84	36.8	3	6	90	0.00	29.472 
12:15	41.6	41.6	41.6	84	37.1	3	6	90	0.00	29.485 
12:20	41.9	41.9	41.9	84	37.4	2	5	90	0.00	29.485 
12:25	42.2	42.2	42.2	85	38.0	2	4	90	0.00	29.485 
12:30	42.3	42.3	42.3	84	37.8	2	4	90	0.00	29.489 
12:35	42.6	42.6	42.6	85	38.4	2	4	112	0.00	29.489 
12:40	42.8	42.8	42.8	85	38.6	1	4	112	0.00	29.489 
12:45	43.1	43.1	43.1	85	38.9	1	3	112	0.00	29.503 
12:50	43.2	43.2	43.2	86	39.3	2	6	135	0.00	29.503 
12:55	43.6	43.6	43.6	87	40.0	3	6	90	0.00	29.503 
13:00	43.8	41.7	43.8	88	40.5	4	10	112	0.00	29.455 
13:05	44.1	41.3	44.1	89	41.1	5	7	112	0.00	29.455 
13:10	44.2	42.2	44.2	89	41.2	4	7	112	0.00	29.455 
13:15	44.3	42.3	44.3	90	41.6	4	9	90	0.00	29.423 
13:20	44.5	44.5	44.5	90	41.8	3	5	90	0.00	29.423 
13:25	44.5	44.5	44.5	91	42.0	3	9	90	0.00	29.423 
13:30	44.6	44.6	44.6	91	42.1	2	9	90	0.01	29.422 
13:35	44.6	42.6	44.6	92	42.4	4	9	90	0.01	29.422 
13:40	44.6	44.6	44.6	92	42.4	3	6	90	0.01	29.422 
13:45	44.6	44.6	44.6	93	42.7	3	6	112	0.00	29.395 
13:50	44.6	44.6	44.6	93	42.7	3	6	112	0.01	29.395 
13:55	44.6	42.6	44.6	93	42.7	4	11	90	0.01	29.395 
14:00	44.8	44.8	44.8	94	43.2	3	6	112	0.00	29.383 
14:05	44.9	44.9	44.9	94	43.3	3	10	90	0.00	29.383 
14:10	44.8	44.8	44.8	94	43.2	2	5	135	0.09	29.383 
14:15	44.5	44.5	44.5	94	42.9	1	5	135	0.08	29.412 
14:20	44.5	44.5	44.5	94	42.9	1	4	112	0.01	29.412 
14:25	44.6	41.9	44.6	94	43.0	5	7	90	0.01	29.412 
14:30	44.8	42.1	44.8	95	43.5	5	10	112	0.01	29.358 
14:35	44.9	43.0	44.9	95	43.6	4	9	90	0.01	29.358 
14:40	45.1	43.2	45.1	95	43.8	4	6	112	0.02	29.358 
14:45	45.1	43.2	45.1	95	43.8	4	7	112	0.02	29.363 
14:50	45.2	45.2	45.2	95	43.9	2	6	90	0.04	29.363 
14:55	45.4	45.4	45.4	95	44.1	0	3	112	0.02	29.363 
15:00	45.4	45.4	45.4	95	44.1	3	6	90	0.02	29.352 
15:05	45.5	45.5	45.5	95	44.2	3	7	90	0.02	29.352 
15:10	45.5	45.5	45.5	95	44.2	1	3	292	0.00	29.352 
15:15	45.5	45.5	45.5	95	44.2	1	3	292	0.00	29.357 
15:20	45.4	45.4	45.4	95	44.1	1	3	292	0.01	29.357 
15:25	45.4	45.4	45.4	95	44.1	1	3	0	0.00	29.357 
15:30	45.2	45.2	45.2	95	43.9	2	5	68	0.01	29.348 
15:35	45.1	45.1	45.1	95	43.8	2	5	90	0.00	29.348 
15:40	44.9	42.2	44.9	95	43.6	5	10	90	0.01	29.348 
15:45	44.8	42.1	44.8	95	43.5	5	11	90	0.00	29.282 
15:50	44.9	43.0	44.9	95	43.6	4	10	112	0.00	29.282 
15:55	45.1	45.1	45.1	95	43.8	3	7	112	0.00	29.282 
16:00	45.1	45.1	45.1	95	43.8	3	10	112	0.00	29.270 
16:05	45.1	45.1	45.1	95	43.8	3	9	90	0.00	29.270 
16:10	45.2	45.2	45.2	96	44.1	3	9	90	0.00	29.270 
16:15	45.4	45.4	45.4	96	44.3	2	7	90	0.00	29.248 
16:20	45.7	45.7	45.7	96	44.6	3	7	90	0.00	29.248 
16:25	45.8	45.8	45.8	96	44.7	2	6	90	0.00	29.248 
16:30	46.0	46.0	46.0	96	44.9	3	7	90	0.00	29.237 
16:35	46.0	46.0	46.0	96	44.9	3	6	112	0.00	29.237 
16:40	46.1	46.1	46.1	96	45.0	3	6	112	0.00	29.237 
16:45	46.4	44.7	46.4	96	45.3	4	7	90	0.00	29.235 
16:50	46.7	46.7	46.7	96	45.6	3	6	90	0.00	29.235 
16:55	47.0	47.0	47.0	96	45.9	3	6	112	0.00	29.235 
17:00	47.1	47.1	47.1	96	46.0	2	6	90	0.00	29.230 
17:05	47.4	47.4	47.4	96	46.3	3	7	112	0.00	29.230 
17:10	47.7	47.7	47.7	96	46.6	2	4	112	0.00	29.230 
17:15	48.0	48.0	48.0	96	46.9	2	4	135	0.00	29.214 
17:20	48.3	48.3	48.3	96	47.2	1	4	112	0.00	29.214 
17:25	48.5	48.5	48.5	95	47.1	2	4	112	0.00	29.214 
17:30	48.6	48.6	48.6	95	47.2	1	6	112	0.00	29.208 
17:35	48.8	48.8	48.8	95	47.4	1	4	90	0.00	29.208 
17:40	48.9	48.9	48.9	95	47.5	1	2	135	0.00	29.208 
17:45	49.1	49.1	49.1	95	47.7	2	12	112	0.00	29.203 
17:50	49.4	49.4	49.4	95	48.0	1	3	292	0.00	29.203 
17:55	49.5	49.5	49.5	95	48.1	1	3	292	0.00	29.203 
18:00	49.8	49.8	49.8	95	48.4	0	3	0	0.00	29.202 
18:05	50.1	50.1	50.1	95	48.7	1	3	292	0.00	29.202 
18:10	50.5	50.5	50.5	95	49.1	1	3	270	0.00	29.202 
18:15	51.0	51.0	51.0	95	49.6	1	4	270	0.00	29.204 
18:20	51.3	51.3	51.3	95	49.9	1	5	248	0.00	29.204 
18:25	51.6	51.6	51.6	95	50.2	2	6	248	0.00	29.204 
18:30	51.7	51.7	51.7	94	50.0	1	3	248	0.00	29.202 
18:35	52.0	52.0	52.0	94	50.3	2	6	248	0.00	29.202 
18:40	52.2	52.2	52.2	94	50.5	2	5	248	0.00	29.202 
18:45	52.5	52.5	52.5	93	50.5	2	5	248	0.00	29.202 
18:50	52.6	52.6	52.6	92	50.3	2	7	225	0.00	29.202 
18:55	52.9	52.9	52.9	92	50.6	2	5	248	0.00	29.202 
19:00	53.2	53.2	53.2	91	50.6	3	7	248	0.00	29.203 
19:05	53.3	53.3	53.3	90	50.4	1	6	248	0.00	29.203 
19:10	53.5	53.5	53.5	90	50.6	2	7	248	0.00	29.203 
19:15	53.9	53.9	53.9	88	50.4	5	14	248	0.00	29.203 
19:20	54.4	54.4	54.4	84	49.7	6	12	270	0.00	29.203 
19:25	54.8	54.8	54.8	81	49.1	7	17	248	0.00	29.203 
19:30	54.1	54.1	54.1	76	46.7	9	20	270	0.00	29.231 
19:35	52.6	52.6	52.6	76	45.3	10	20	270	0.00	29.231 
19:40	51.6	51.6	51.6	77	44.6	9	20	270	0.00	29.231 
19:45	50.8	50.8	50.8	79	44.5	10	20	270	0.00	29.264 
19:50	49.9	46.6	49.9	79	43.6	8	20	270	0.00	29.264 
19:55	48.6	44.7	48.6	80	42.7	9	18	270	0.00	29.264 
20:00	47.4	43.6	47.4	82	42.2	8	21	270	0.00	29.302 
20:05	46.4	41.6	46.4	79	40.2	10	21	270	0.00	29.302 
20:10	45.7	41.1	45.7	78	39.2	9	18	270	0.00	29.302 
20:15	44.9	39.7	44.9	79	38.8	10	23	270	0.00	29.316 
20:20	44.3	39.4	44.3	78	37.9	9	17	270	0.00	29.316 
20:25	44.1	39.1	44.1	77	37.4	9	23	270	0.00	29.316 
20:30	43.6	39.5	43.6	76	36.5	7	17	270	0.00	29.328 
20:35	43.3	39.7	43.3	77	36.6	6	11	270	0.00	29.328 
20:40	43.1	38.4	43.1	77	36.4	8	18	270	0.00	29.328 
20:45	42.3	36.1	42.3	76	35.3	11	25	270	0.00	29.337 
20:50	41.8	35.9	41.8	77	35.1	10	22	270	0.00	29.337 
20:55	41.3	36.2	41.3	77	34.6	8	18	248	0.00	29.337 
21:00	40.6	34.4	40.6	77	34.0	10	18	270	0.00	29.358 
21:05	40.1	35.9	40.1	79	34.1	6	14	270	0.00	29.358 
21:10	39.8	34.9	39.8	80	34.1	7	13	270	0.00	29.358 
21:15	39.5	35.2	39.5	80	33.9	6	19	248	0.00	29.376 
21:20	39.3	35.7	39.3	79	33.3	5	14	248	0.00	29.376 
21:25	39.2	34.2	39.2	79	33.2	7	14	270	0.00	29.376 
21:30	39.1	34.1	39.1	79	33.1	7	15	270	0.00	29.395 
21:35	38.9	34.4	38.9	79	33.0	6	13	270	0.00	29.395 
21:40	38.6	33.5	38.6	80	33.0	7	17	270	0.00	29.395 
21:45	38.0	31.6	38.0	79	32.1	9	18	270	0.00	29.413 
21:50	37.6	31.1	37.6	80	32.0	9	20	270	0.00	29.413 
21:55	37.3	33.3	37.3	81	32.0	5	10	270	0.00	29.413 
22:00	37.2	31.2	37.2	81	31.9	8	16	270	0.00	29.426 
22:05	37.2	31.8	37.2	81	31.9	7	15	270	0.00	29.426 
22:10	37.2	32.4	37.2	81	31.9	6	16	270	0.00	29.426 
22:15	37.2	31.2	37.2	80	31.6	8	13	270	0.00	29.433 
22:20	37.3	32.5	37.3	80	31.7	6	14	270	0.00	29.433 
22:25	37.3	32.5	37.3	80	31.7	6	12	270	0.00	29.433 
22:30	37.3	31.9	37.3	79	31.4	7	12	270	0.00	29.453 
22:35	37.3	32.5	37.3	79	31.4	6	11	270	0.00	29.453 
22:40	37.2	31.8	37.2	79	31.3	7	12	270	0.00	29.453 
22:45	37.2	33.2	37.2	79	31.3	5	10	270	0.00	29.460 
22:50	37.0	32.9	37.0	79	31.1	5	11	270	0.00	29.460 
22:55	37.0	31.5	37.0	80	31.4	7	12	270	0.00	29.460 
23:00	36.9	31.4	36.9	79	31.0	7	13	270	0.00	29.459 
23:05	36.8	31.9	36.8	79	30.9	6	11	270	0.00	29.459 
23:10	36.6	31.7	36.6	79	30.7	6	14	270	0.00	29.459 
23:15	36.6	31.7	36.6	79	30.7	6	13	270	0.00	29.469 
23:20	36.6	33.4	36.6	79	30.7	4	8	270	0.00	29.469 
23:25	36.6	31.7	36.6	78	30.4	6	12	270	0.00	29.469 
23:30	36.6	31.7	36.6	77	30.1	6	14	270	0.00	29.471 
23:35	36.6	31.7	36.6	77	30.1	6	13	270	0.00	29.471 
23:40	36.6	31.7	36.6	77	30.1	6	12	270	0.00	29.471 
23:45	36.6	31.0	36.6	75	29.4	7	12	270	0.00	29.476 
23:50	36.6	31.7	36.6	75	29.4	6	13	270	0.00	29.476 
23:55	36.5	31.6	36.5	75	29.3	6	12	270	0.00	29.476 

CoCoRaHS
IN-AL-39
A2 Web Hosting
Creative Commons License
GoDaddy
search engine by freefind advanced

loaded 2018-11-18 11:29:59 • last modified 2010-11-18 10:43:29
Privacy PolicyDisclaimer
• wx.awcolley.com is powered by PmWiki v.2002016 •
• all content (unless otherwise noted) © 2018 A W Colley